createdAt,value
2022-12-05T00:04:10.721Z,26.90
2022-12-05T00:09:15.038Z,29.90
2022-12-05T00:14:20.024Z,29.15
2022-12-05T00:19:26.319Z,32.58
2022-12-05T00:24:29.907Z,30.40
2022-12-05T00:29:34.858Z,30.88
2022-12-05T00:34:38.886Z,30.25
2022-12-05T00:39:42.436Z,32.50
2022-12-05T00:44:47.377Z,31.80
2022-12-05T00:49:51.392Z,32.17
2022-12-05T00:54:54.872Z,32.90
2022-12-05T00:59:59.992Z,33.30
2022-12-05T01:05:04.086Z,33.63
2022-12-05T01:10:08.882Z,34.22
2022-12-05T01:15:13.975Z,34.20
2022-12-05T01:20:17.631Z,33.00
2022-12-05T01:25:21.307Z,32.67
2022-12-05T01:30:26.533Z,33.15
2022-12-05T01:35:32.960Z,34.05
2022-12-05T01:40:37.161Z,31.80
2022-12-05T01:45:44.491Z,32.10
2022-12-05T01:50:49.817Z,32.25
2022-12-05T01:55:54.929Z,30.70
2022-12-05T02:00:59.979Z,31.70
2022-12-05T02:06:05.025Z,30.00
2022-12-05T02:11:09.982Z,32.58
2022-12-05T02:16:22.063Z,30.98
2022-12-05T02:22:08.688Z,30.80
2022-12-05T02:27:28.413Z,30.77
2022-12-05T02:32:41.972Z,29.85
2022-12-05T02:37:53.136Z,30.17
2022-12-05T02:43:01.162Z,27.02
2022-12-05T02:48:07.378Z,29.00
2022-12-05T02:53:14.320Z,30.85
2022-12-05T02:58:23.972Z,30.08
2022-12-05T03:03:30.530Z,29.77
2022-12-05T03:08:41.084Z,29.70
2022-12-05T03:13:47.243Z,30.60
2022-12-05T03:18:57.867Z,29.88
2022-12-05T03:24:04.375Z,30.15
2022-12-05T03:29:20.934Z,29.15
2022-12-05T03:34:33.674Z,28.60
2022-12-05T03:39:43.312Z,28.38
2022-12-05T03:44:53.770Z,29.58
2022-12-05T03:50:04.278Z,29.88
2022-12-05T03:55:13.608Z,29.70
2022-12-05T04:00:20.375Z,28.50
2022-12-05T04:05:31.812Z,27.25
2022-12-05T04:10:49.476Z,28.73
2022-12-05T04:16:16.029Z,27.35
2022-12-05T04:21:39.274Z,29.95
2022-12-05T04:26:49.579Z,29.30
2022-12-05T04:31:59.759Z,20.00
2022-12-05T04:37:11.761Z,22.33
2022-12-05T04:42:19.243Z,29.00
2022-12-05T04:47:26.457Z,28.65
2022-12-05T04:52:32.753Z,29.48
2022-12-05T04:57:42.103Z,29.50
2022-12-05T06:29:35.465Z,25.83
2022-12-05T06:34:39.080Z,25.10
2022-12-05T06:39:42.778Z,27.00
2022-12-05T06:44:47.798Z,27.08
2022-12-05T06:49:51.491Z,26.80
2022-12-05T06:54:55.226Z,26.77
2022-12-05T07:00:22.473Z,26.73
2022-12-05T07:05:26.006Z,26.15
2022-12-05T07:10:29.554Z,26.58
2022-12-05T07:15:34.570Z,27.45
2022-12-05T07:21:04.003Z,25.88
2022-12-05T07:26:06.092Z,26.83
2022-12-05T07:31:13.262Z,27.13
2022-12-05T07:36:18.726Z,25.30
2022-12-05T07:41:24.978Z,29.20
2022-12-05T07:46:31.586Z,24.13
2022-12-05T07:51:35.523Z,25.45
2022-12-05T07:56:42.060Z,27.73
2022-12-05T08:01:51.533Z,25.60
2022-12-05T08:06:55.436Z,24.77
2022-12-05T08:11:59.062Z,23.55
2022-12-05T08:17:04.833Z,23.05
2022-12-05T08:22:08.705Z,23.13
2022-12-05T08:27:12.476Z,23.80
2022-12-05T08:32:17.454Z,24.63
2022-12-05T08:37:21.122Z,24.30
2022-12-05T08:42:24.668Z,24.65
2022-12-05T08:47:32.222Z,25.65
2022-12-05T08:52:35.987Z,25.90
2022-12-05T08:57:39.552Z,28.13
2022-12-05T09:02:44.642Z,28.92
2022-12-05T09:07:49.399Z,28.65
2022-12-05T09:12:53.134Z,31.48
2022-12-05T09:17:59.193Z,28.45
2022-12-05T09:23:02.671Z,28.10
2022-12-05T09:28:06.204Z,27.60
2022-12-05T09:33:11.175Z,28.05
2022-12-05T09:38:14.622Z,27.48
2022-12-05T09:43:27.622Z,27.85
2022-12-05T09:48:33.438Z,28.73
2022-12-05T09:53:39.389Z,27.33
2022-12-05T09:58:44.880Z,27.33
2022-12-05T10:04:13.425Z,27.73
2022-12-05T10:09:35.662Z,28.08
2022-12-05T10:14:49.269Z,27.63
2022-12-05T10:19:57.488Z,27.05
2022-12-05T10:25:04.657Z,41.95
2022-12-05T10:30:15.632Z,27.95
2022-12-05T10:35:23.358Z,28.30
2022-12-05T10:40:28.550Z,27.45
2022-12-05T10:45:32.490Z,28.20
2022-12-05T10:50:39.837Z,29.52
2022-12-05T10:56:06.496Z,28.05
2022-12-05T11:01:17.194Z,28.23
2022-12-05T11:06:26.875Z,26.20
2022-12-05T11:11:33.512Z,25.83
2022-12-05T11:16:40.687Z,25.48
2022-12-05T11:21:45.837Z,21.88
2022-12-05T11:26:51.855Z,21.00
2022-12-05T11:31:55.588Z,22.95
2022-12-05T11:37:06.345Z,20.20
2022-12-05T11:42:25.121Z,18.20
2022-12-05T11:47:47.093Z,18.10
2022-12-05T11:53:05.524Z,18.65
2022-12-05T11:58:29.982Z,16.33
2022-12-05T12:04:13.181Z,15.95
2022-12-05T12:09:29.589Z,16.13
2022-12-05T12:14:42.482Z,15.50
2022-12-05T12:20:14.249Z,16.98
2022-12-05T12:25:30.155Z,15.75
2022-12-05T12:30:49.752Z,16.27
2022-12-05T12:36:02.164Z,15.43
2022-12-05T12:41:17.672Z,14.82
2022-12-05T12:46:31.461Z,14.10
2022-12-05T12:51:35.374Z,14.15
2022-12-05T12:56:54.217Z,16.90
2022-12-05T13:02:05.097Z,15.45
2022-12-05T13:07:14.183Z,13.93
2022-12-05T13:12:24.602Z,13.93
2022-12-05T13:17:30.392Z,13.93
2022-12-05T13:22:33.941Z,13.82
2022-12-05T13:27:38.906Z,13.75
2022-12-05T13:32:43.087Z,16.17
2022-12-05T13:38:06.610Z,13.80
2022-12-05T13:43:13.070Z,12.27
2022-12-05T13:48:23.962Z,13.35
2022-12-05T13:53:33.472Z,12.80
2022-12-05T13:58:59.839Z,14.25
2022-12-05T14:04:04.606Z,13.85
2022-12-05T14:09:29.837Z,12.93
2022-12-05T14:15:01.885Z,13.02
2022-12-05T14:20:24.580Z,11.73
2022-12-05T14:25:54.660Z,13.15
2022-12-05T14:31:18.904Z,12.48
2022-12-05T14:36:30.482Z,17.00
2022-12-05T14:41:36.792Z,12.65
2022-12-05T14:46:46.284Z,9.50
2022-12-05T14:51:57.390Z,7.78
2022-12-05T15:02:21.316Z,4.72
2022-12-05T15:07:33.204Z,4.18
2022-12-05T15:12:43.047Z,3.75
2022-12-05T15:17:51.740Z,4.47
2022-12-05T15:22:55.621Z,3.45
2022-12-05T15:28:02.120Z,3.97
2022-12-05T15:33:12.954Z,3.97
2022-12-05T15:38:27.034Z,3.65
2022-12-05T15:43:32.963Z,3.60
2022-12-05T15:48:38.005Z,4.22
2022-12-05T15:53:45.514Z,5.00
2022-12-05T15:58:54.466Z,4.22
2022-12-05T16:04:03.299Z,4.20
2022-12-05T16:09:11.683Z,4.15
2022-12-05T16:14:36.970Z,4.63
2022-12-05T16:19:41.236Z,4.63
2022-12-05T16:24:48.366Z,3.85
2022-12-05T16:30:11.535Z,4.70
2022-12-05T16:35:32.646Z,4.38
2022-12-05T16:40:36.315Z,5.07
2022-12-05T16:45:41.786Z,4.35
2022-12-05T16:50:47.308Z,6.18
2022-12-05T16:55:51.384Z,5.80
2022-12-05T17:01:01.999Z,4.57
2022-12-05T17:06:07.347Z,4.75
2022-12-05T17:11:15.937Z,4.93
2022-12-05T17:16:20.939Z,4.68
2022-12-05T17:21:32.233Z,5.10
2022-12-05T17:26:35.711Z,4.97
2022-12-05T17:31:39.606Z,19.90
2022-12-05T17:36:44.628Z,5.50
2022-12-05T17:41:48.751Z,5.18
2022-12-05T17:46:52.515Z,5.43
2022-12-05T17:52:20.919Z,6.07
2022-12-05T17:57:22.023Z,6.00
2022-12-05T18:02:25.526Z,6.45
2022-12-05T18:07:30.530Z,5.75
2022-12-05T18:12:34.077Z,6.00
2022-12-05T18:17:37.795Z,5.43
2022-12-05T18:22:43.232Z,7.28
2022-12-05T18:27:46.803Z,8.00
2022-12-05T18:32:50.736Z,7.05
2022-12-05T18:37:55.669Z,7.03
2022-12-05T18:42:59.238Z,7.88
2022-12-05T18:48:37.660Z,36.08
2022-12-05T18:53:28.279Z,6.93
2022-12-05T18:58:31.842Z,6.50
2022-12-05T19:03:36.152Z,6.18
2022-12-05T19:08:41.084Z,5.95
2022-12-05T19:13:44.791Z,6.25
2022-12-05T19:18:48.593Z,6.18
2022-12-05T19:23:53.583Z,6.50
2022-12-05T19:28:58.216Z,5.75
2022-12-05T19:34:03.317Z,6.55
2022-12-05T19:39:14.204Z,6.45
2022-12-05T19:44:17.785Z,6.53
2022-12-05T19:49:23.037Z,6.18
2022-12-05T19:54:28.299Z,7.25
2022-12-05T19:59:32.294Z,6.80
2022-12-05T20:04:35.997Z,7.35
2022-12-05T20:09:41.040Z,7.25
2022-12-05T20:14:44.552Z,6.93
2022-12-05T20:19:48.076Z,12.90
2022-12-05T20:24:53.000Z,8.90
2022-12-05T20:29:56.854Z,7.10
2022-12-05T20:35:00.506Z,7.43
2022-12-05T20:40:06.355Z,7.10
2022-12-05T20:45:10.494Z,7.95
2022-12-05T20:50:14.799Z,7.32
2022-12-05T20:55:19.849Z,7.05
2022-12-05T21:00:24.429Z,6.05
2022-12-05T21:05:28.129Z,6.68
2022-12-05T21:10:32.985Z,6.50
2022-12-05T21:15:37.071Z,7.03
2022-12-05T21:20:42.378Z,7.35
2022-12-05T21:25:47.379Z,6.93
2022-12-05T21:30:50.954Z,7.38
2022-12-05T21:35:55.803Z,7.72
2022-12-05T21:41:00.934Z,9.23
2022-12-05T21:46:06.207Z,7.13
2022-12-05T21:51:10.414Z,7.35
2022-12-05T21:56:17.515Z,6.93
2022-12-05T22:01:23.212Z,6.45
2022-12-05T22:06:27.110Z,6.55
2022-12-05T22:11:32.243Z,6.72
2022-12-05T22:16:36.016Z,6.80
2022-12-05T22:21:39.722Z,6.03
2022-12-05T22:26:44.568Z,6.03
2022-12-05T22:31:48.109Z,5.95
2022-12-05T22:36:52.340Z,5.78
2022-12-05T22:41:57.469Z,19.63
2022-12-05T22:47:01.091Z,5.93
2022-12-05T22:52:04.936Z,6.57
2022-12-05T22:57:09.816Z,5.30
2022-12-05T23:02:16.536Z,5.68
2022-12-05T23:07:20.692Z,5.68
2022-12-05T23:12:25.986Z,5.18
2022-12-05T23:17:29.708Z,5.60
2022-12-05T23:22:34.903Z,4.13
2022-12-05T23:27:40.061Z,5.13
2022-12-05T23:32:43.810Z,4.57
2022-12-05T23:37:48.702Z,4.57
2022-12-05T23:42:53.902Z,4.63
2022-12-05T23:48:00.552Z,5.05
2022-12-05T23:53:08.070Z,4.97
2022-12-05T23:58:13.226Z,4.93
